sensor_id;sensor_type;location;lat;lon;timestamp;pressure;altitude;pressure_sealevel;temperature;humidity
54503;BME280;40411;50.090;21.954;2022-07-04T00:00:15;152857.72;;;15.16;100.00
54503;BME280;40411;50.090;21.954;2022-07-04T00:03:01;152844.88;;;15.11;100.00
54503;BME280;40411;50.090;21.954;2022-07-04T00:05:27;152834.66;;;15.07;100.00
54503;BME280;40411;50.090;21.954;2022-07-04T00:07:53;152829.50;;;15.05;100.00
54503;BME280;40411;50.090;21.954;2022-07-04T00:10:19;152816.66;;;15.00;100.00
54503;BME280;40411;50.090;21.954;2022-07-04T00:12:46;152792.25;;;14.90;100.00
54503;BME280;40411;50.090;21.954;2022-07-04T00:15:13;152792.25;;;14.90;100.00
54503;BME280;40411;50.090;21.954;2022-07-04T00:17:39;152792.25;;;14.90;100.00
54503;BME280;40411;50.090;21.954;2022-07-04T00:20:06;152778.13;;;14.85;100.00
54503;BME280;40411;50.090;21.954;2022-07-04T00:22:32;152774.31;;;14.83;100.00
54503;BME280;40411;50.090;21.954;2022-07-04T00:24:59;152761.47;;;14.78;100.00
54503;BME280;40411;50.090;21.954;2022-07-04T00:27:25;152752.47;;;14.74;100.00
54503;BME280;40411;50.090;21.954;2022-07-04T00:29:51;152740.91;;;14.70;100.00
54503;BME280;40411;50.090;21.954;2022-07-04T00:32:18;152733.22;;;14.67;100.00
54503;BME280;40411;50.090;21.954;2022-07-04T00:34:44;152721.66;;;14.62;100.00
54503;BME280;40411;50.090;21.954;2022-07-04T00:37:10;152713.97;;;14.59;100.00
54503;BME280;40411;50.090;21.954;2022-07-04T00:39:36;152729.34;;;14.65;100.00
54503;BME280;40411;50.090;21.954;2022-07-04T00:42:02;152742.19;;;14.70;100.00
54503;BME280;40411;50.090;21.954;2022-07-04T00:44:30;152749.88;;;14.73;100.00
54503;BME280;40411;50.090;21.954;2022-07-04T00:46:56;152769.16;;;14.81;100.00
54503;BME280;40411;50.090;21.954;2022-07-04T00:49:22;152755.03;;;14.75;100.00
54503;BME280;40411;50.090;21.954;2022-07-04T00:51:49;152747.34;;;14.72;100.00
54503;BME280;40411;50.090;21.954;2022-07-04T00:54:16;152738.38;;;14.69;100.00
54503;BME280;40411;50.090;21.954;2022-07-04T00:56:44;152731.94;;;14.66;100.00
54503;BME280;40411;50.090;21.954;2022-07-04T00:59:11;152722.97;;;14.63;100.00
54503;BME280;40411;50.090;21.954;2022-07-04T01:01:37;152713.97;;;14.59;100.00
54503;BME280;40411;50.090;21.954;2022-07-04T01:04:04;152716.56;;;14.60;100.00
54503;BME280;40411;50.090;21.954;2022-07-04T01:06:31;152716.56;;;14.60;100.00
54503;BME280;40411;50.090;21.954;2022-07-04T01:08:58;152703.72;;;14.55;100.00
54503;BME280;40411;50.090;21.954;2022-07-04T01:11:24;152701.13;;;14.54;100.00
54503;BME280;40411;50.090;21.954;2022-07-04T01:13:50;152693.38;;;14.51;100.00
54503;BME280;40411;50.090;21.954;2022-07-04T01:16:16;152680.59;;;14.46;100.00
54503;BME280;40411;50.090;21.954;2022-07-04T01:18:42;152685.69;;;14.48;100.00
54503;BME280;40411;50.090;21.954;2022-07-04T01:21:08;152690.84;;;14.50;100.00
54503;BME280;40411;50.090;21.954;2022-07-04T01:23:38;152675.44;;;14.44;100.00
54503;BME280;40411;50.090;21.954;2022-07-04T01:26:05;152665.16;;;14.40;100.00
54503;BME280;40411;50.090;21.954;2022-07-04T01:28:31;152658.75;;;14.37;100.00
54503;BME280;40411;50.090;21.954;2022-07-04T01:30:57;152652.31;;;14.35;100.00
54503;BME280;40411;50.090;21.954;2022-07-04T01:33:23;152635.66;;;14.28;100.00
54503;BME280;40411;50.090;21.954;2022-07-04T01:35:49;152647.22;;;14.33;100.00
54503;BME280;40411;50.090;21.954;2022-07-04T01:38:15;152643.34;;;14.31;100.00
54503;BME280;40411;50.090;21.954;2022-07-04T01:40:42;152624.09;;;14.23;100.00
54503;BME280;40411;50.090;21.954;2022-07-04T01:43:08;152625.41;;;14.24;100.00
54503;BME280;40411;50.090;21.954;2022-07-04T01:45:34;152633.13;;;14.27;100.00
54503;BME280;40411;50.090;21.954;2022-07-04T01:48:07;152626.69;;;14.24;100.00
54503;BME280;40411;50.090;21.954;2022-07-04T01:50:34;152615.13;;;14.20;100.00
54503;BME280;40411;50.090;21.954;2022-07-04T01:53:00;152613.84;;;14.19;100.00
54503;BME280;40411;50.090;21.954;2022-07-04T01:55:26;152615.13;;;14.20;100.00
54503;BME280;40411;50.090;21.954;2022-07-04T01:57:52;152613.84;;;14.19;100.00
54503;BME280;40411;50.090;21.954;2022-07-04T02:00:17;152608.72;;;14.17;100.00
54503;BME280;40411;50.090;21.954;2022-07-04T02:03:02;152608.72;;;14.17;100.00
54503;BME280;40411;50.090;21.954;2022-07-04T02:05:28;152586.91;;;14.08;100.00
54503;BME280;40411;50.090;21.954;2022-07-04T02:07:54;152595.88;;;14.12;100.00
54503;BME280;40411;50.090;21.954;2022-07-04T02:10:20;152609.97;;;14.18;100.00
54503;BME280;40411;50.090;21.954;2022-07-04T02:12:46;152608.72;;;14.17;100.00
54503;BME280;40411;50.090;21.954;2022-07-04T02:15:35;152593.31;;;14.11;100.00
54503;BME280;40411;50.090;21.954;2022-07-04T02:18:07;152593.31;;;14.11;100.00
54503;BME280;40411;50.090;21.954;2022-07-04T02:20:34;152580.50;;;14.06;100.00
54503;BME280;40411;50.090;21.954;2022-07-04T02:23:01;152567.66;;;14.01;100.00
54503;BME280;40411;50.090;21.954;2022-07-04T02:25:27;152553.53;;;13.95;100.00
54503;BME280;40411;50.090;21.954;2022-07-04T02:27:54;152544.59;;;13.92;100.00
54503;BME280;40411;50.090;21.954;2022-07-04T02:30:20;152549.72;;;13.94;100.00
54503;BME280;40411;50.090;21.954;2022-07-04T02:32:46;152574.06;;;14.03;100.00
54503;BME280;40411;50.090;21.954;2022-07-04T02:35:12;152594.59;;;14.12;100.00
54503;BME280;40411;50.090;21.954;2022-07-04T02:37:38;152589.47;;;14.09;100.00
54503;BME280;40411;50.090;21.954;2022-07-04T02:40:05;152606.16;;;14.16;100.00
54503;BME280;40411;50.090;21.954;2022-07-04T02:42:32;152597.19;;;14.13;100.00
54503;BME280;40411;50.090;21.954;2022-07-04T02:44:59;152592.06;;;14.11;100.00
54503;BME280;40411;50.090;21.954;2022-07-04T02:47:25;152590.78;;;14.10;100.00
54503;BME280;40411;50.090;21.954;2022-07-04T02:49:52;152594.59;;;14.12;100.00
54503;BME280;40411;50.090;21.954;2022-07-04T02:52:18;152590.78;;;14.10;100.00
54503;BME280;40411;50.090;21.954;2022-07-04T02:54:44;152584.38;;;14.07;100.00
54503;BME280;40411;50.090;21.954;2022-07-04T02:57:11;152601.03;;;14.14;100.00
54503;BME280;40411;50.090;21.954;2022-07-04T02:59:37;152613.84;;;14.19;100.00
54503;BME280;40411;50.090;21.954;2022-07-04T03:02:04;152619.00;;;14.21;100.00
54503;BME280;40411;50.090;21.954;2022-07-04T03:04:30;152642.06;;;14.30;100.00
54503;BME280;40411;50.090;21.954;2022-07-04T03:06:55;152678.00;;;14.45;100.00
54503;BME280;40411;50.090;21.954;2022-07-04T03:09:21;152693.38;;;14.51;100.00
54503;BME280;40411;50.090;21.954;2022-07-04T03:11:48;152703.72;;;14.55;100.00
54503;BME280;40411;50.090;21.954;2022-07-04T03:14:14;152724.25;;;14.63;100.00
54503;BME280;40411;50.090;21.954;2022-07-04T03:16:40;152716.56;;;14.60;100.00
54503;BME280;40411;50.090;21.954;2022-07-04T03:19:06;152716.56;;;14.60;100.00
54503;BME280;40411;50.090;21.954;2022-07-04T03:21:32;152716.56;;;14.60;100.00
54503;BME280;40411;50.090;21.954;2022-07-04T03:23:58;152728.09;;;14.65;100.00
54503;BME280;40411;50.090;21.954;2022-07-04T03:26:30;152757.63;;;14.77;100.00
54503;BME280;40411;50.090;21.954;2022-07-04T03:28:57;152779.44;;;14.85;100.00
54503;BME280;40411;50.090;21.954;2022-07-04T03:31:24;152794.84;;;14.91;100.00
54503;BME280;40411;50.090;21.954;2022-07-04T03:33:51;152812.78;;;14.98;100.00
54503;BME280;40411;50.090;21.954;2022-07-04T03:36:17;152834.66;;;15.07;100.00
54503;BME280;40411;50.090;21.954;2022-07-04T03:38:43;152829.50;;;15.05;100.00
54503;BME280;40411;50.090;21.954;2022-07-04T03:41:09;152832.03;;;15.06;100.00
54503;BME280;40411;50.090;21.954;2022-07-04T03:43:35;152875.69;;;15.24;100.00
54503;BME280;40411;50.090;21.954;2022-07-04T03:46:01;152951.44;;;15.54;100.00
54503;BME280;40411;50.090;21.954;2022-07-04T03:48:27;153041.38;;;15.90;100.00
54503;BME280;40411;50.090;21.954;2022-07-04T03:50:53;153147.97;;;16.32;100.00
54503;BME280;40411;50.090;21.954;2022-07-04T03:53:19;153358.75;;;17.16;100.00
54503;BME280;40411;50.090;21.954;2022-07-04T03:55:45;153451.34;;;17.53;100.00
54503;BME280;40411;50.090;21.954;2022-07-04T03:58:11;153500.19;;;17.72;100.00
54503;BME280;40411;50.090;21.954;2022-07-04T04:00:37;153381.91;;;17.25;100.00
54503;BME280;40411;50.090;21.954;2022-07-04T04:03:03;153309.91;;;16.96;100.00
54503;BME280;40411;50.090;21.954;2022-07-04T04:05:49;153284.25;;;16.86;100.00
54503;BME280;40411;50.090;21.954;2022-07-04T04:08:15;153325.38;;;17.03;100.00
54503;BME280;40411;50.090;21.954;2022-07-04T04:10:41;153390.91;;;17.29;100.00
54503;BME280;40411;50.090;21.954;2022-07-04T04:13:08;153407.59;;;17.35;100.00
54503;BME280;40411;50.090;21.954;2022-07-04T04:15:34;153407.59;;;17.35;100.00
54503;BME280;40411;50.090;21.954;2022-07-04T04:18:00;153446.19;;;17.51;100.00
54503;BME280;40411;50.090;21.954;2022-07-04T04:20:25;153469.31;;;17.60;100.00
54503;BME280;40411;50.090;21.954;2022-07-04T04:22:51;153497.59;;;17.71;100.00
54503;BME280;40411;50.090;21.954;2022-07-04T04:25:18;153533.66;;;17.85;100.00
54503;BME280;40411;50.090;21.954;2022-07-04T04:27:43;153604.41;;;18.14;100.00
54503;BME280;40411;50.090;21.954;2022-07-04T04:30:10;153610.81;;;18.16;100.00
54503;BME280;40411;50.090;21.954;2022-07-04T04:32:36;153648.13;;;18.31;100.00
54503;BME280;40411;50.090;21.954;2022-07-04T04:35:02;153682.88;;;18.45;100.00
54503;BME280;40411;50.090;21.954;2022-07-04T04:37:28;153735.59;;;18.66;100.00
54503;BME280;40411;50.090;21.954;2022-07-04T04:39:54;153788.41;;;18.87;100.00
54503;BME280;40411;50.090;21.954;2022-07-04T04:42:19;153834.69;;;19.05;100.00
54503;BME280;40411;50.090;21.954;2022-07-04T04:44:45;153865.59;;;19.17;100.00
54503;BME280;40411;50.090;21.954;2022-07-04T04:47:11;153924.78;;;19.41;100.00
54503;BME280;40411;50.090;21.954;2022-07-04T04:49:37;153942.81;;;19.48;100.00
54503;BME280;40411;50.090;21.954;2022-07-04T04:52:03;153991.78;;;19.68;100.00
54503;BME280;40411;50.090;21.954;2022-07-04T04:54:32;154033.00;;;19.84;100.00
54503;BME280;40411;50.090;21.954;2022-07-04T04:56:58;154066.44;;;19.97;100.00
54503;BME280;40411;50.090;21.954;2022-07-04T04:59:24;154115.34;;;20.17;100.00
54503;BME280;40411;50.090;21.954;2022-07-04T05:01:50;154152.72;;;20.31;100.00
54503;BME280;40411;50.090;21.954;2022-07-04T05:04:16;154202.94;;;20.51;100.00
54503;BME280;40411;50.090;21.954;2022-07-04T05:06:42;154177.16;;;20.41;100.00
54503;BME280;40411;50.090;21.954;2022-07-04T05:09:08;154214.59;;;20.56;100.00
54503;BME280;40411;50.090;21.954;2022-07-04T05:11:34;154263.56;;;20.75;100.00
54503;BME280;40411;50.090;21.954;2022-07-04T05:14:00;154254.50;;;20.72;100.00
54503;BME280;40411;50.090;21.954;2022-07-04T05:16:27;154280.28;;;20.82;100.00
54503;BME280;40411;50.090;21.954;2022-07-04T05:18:52;154327.94;;;21.01;100.00
54503;BME280;40411;50.090;21.954;2022-07-04T05:21:18;154303.44;;;20.91;100.00
54503;BME280;40411;50.090;21.954;2022-07-04T05:23:44;154379.47;;;21.22;100.00
54503;BME280;40411;50.090;21.954;2022-07-04T05:26:10;154414.25;;;21.35;100.00
54503;BME280;40411;50.090;21.954;2022-07-04T05:28:36;154434.94;;;21.44;100.00
54503;BME280;40411;50.090;21.954;2022-07-04T05:31:02;154458.09;;;21.53;100.00
54503;BME280;40411;50.090;21.954;2022-07-04T05:33:28;154481.34;;;21.62;100.00
54503;BME280;40411;50.090;21.954;2022-07-04T05:35:54;154501.91;;;21.70;100.00
54503;BME280;40411;50.090;21.954;2022-07-04T05:38:20;154543.16;;;21.86;100.00
54503;BME280;40411;50.090;21.954;2022-07-04T05:40:46;154627.00;;;22.20;100.00
54503;BME280;40411;50.090;21.954;2022-07-04T05:43:12;154661.81;;;22.34;100.00
54503;BME280;40411;50.090;21.954;2022-07-04T05:45:38;154700.50;;;22.49;100.00
54503;BME280;40411;50.090;21.954;2022-07-04T05:48:03;154699.22;;;22.48;100.00
54503;BME280;40411;50.090;21.954;2022-07-04T05:50:29;154714.69;;;22.55;100.00
54503;BME280;40411;50.090;21.954;2022-07-04T05:52:55;154728.88;;;22.60;100.00
54503;BME280;40411;50.090;21.954;2022-07-04T05:55:21;154811.41;;;22.93;100.00
54503;BME280;40411;50.090;21.954;2022-07-04T05:57:47;154847.56;;;23.07;100.00
54503;BME280;40411;50.090;21.954;2022-07-04T06:00:13;154883.69;;;23.22;100.00
54503;BME280;40411;50.090;21.954;2022-07-04T06:02:39;154901.72;;;23.29;100.00
54503;BME280;40411;50.090;21.954;2022-07-04T06:05:07;154980.44;;;23.60;100.00
54503;BME280;40411;50.090;21.954;2022-07-04T06:07:33;154955.91;;;23.50;100.00
54503;BME280;40411;50.090;21.954;2022-07-04T06:09:59;155030.81;;;23.80;100.00
54503;BME280;40411;50.090;21.954;2022-07-04T06:12:25;155128.88;;;24.19;100.00
54503;BME280;40411;50.090;21.954;2022-07-04T06:14:50;155203.75;;;24.48;100.00
54503;BME280;40411;50.090;21.954;2022-07-04T06:17:16;155428.47;;;25.37;100.00
54503;BME280;40411;50.090;21.954;2022-07-04T06:19:42;155670.09;;;26.33;100.00
54503;BME280;40411;50.090;21.954;2022-07-04T06:22:08;155990.69;;;27.60;100.00
54503;BME280;40411;50.090;21.954;2022-07-04T06:24:34;156139.44;;;28.19;94.12
54503;BME280;40411;50.090;21.954;2022-07-04T06:27:00;156192.50;;;28.40;93.38
54503;BME280;40411;50.090;21.954;2022-07-04T06:29:26;156446.16;;;29.40;90.90
54503;BME280;40411;50.090;21.954;2022-07-04T06:31:51;156433.22;;;29.35;88.73
54503;BME280;40411;50.090;21.954;2022-07-04T06:34:17;156548.44;;;29.80;85.57
54503;BME280;40411;50.090;21.954;2022-07-04T06:37:02;156531.63;;;29.74;85.49
54503;BME280;40411;50.090;21.954;2022-07-04T06:39:28;156553.63;;;29.82;83.61
54503;BME280;40411;50.090;21.954;2022-07-04T06:41:54;156768.59;;;30.67;84.40
54503;BME280;40411;50.090;21.954;2022-07-04T06:44:20;156725.81;;;30.50;80.03
54503;BME280;40411;50.090;21.954;2022-07-04T06:46:46;156823.00;;;30.89;79.06
54503;BME280;40411;50.090;21.954;2022-07-04T06:49:12;156900.69;;;31.20;81.71
54503;BME280;40411;50.090;21.954;2022-07-04T06:51:38;157105.47;;;32.00;72.05
54503;BME280;40411;50.090;21.954;2022-07-04T06:54:05;157096.41;;;31.97;60.24
54503;BME280;40411;50.090;21.954;2022-07-04T06:56:31;156838.53;;;30.95;65.56
54503;BME280;40411;50.090;21.954;2022-07-04T06:58:56;156936.94;;;31.34;62.77
54503;BME280;40411;50.090;21.954;2022-07-04T07:01:22;156999.19;;;31.58;63.25
54503;BME280;40411;50.090;21.954;2022-07-04T07:03:49;156846.34;;;30.98;64.49
54503;BME280;40411;50.090;21.954;2022-07-04T07:06:15;157165.09;;;32.24;60.48
54503;BME280;40411;50.090;21.954;2022-07-04T07:08:40;156890.34;;;31.15;63.14
54503;BME280;40411;50.090;21.954;2022-07-04T07:11:06;157027.69;;;31.70;61.36
54503;BME280;40411;50.090;21.954;2022-07-04T07:13:43;157171.56;;;32.26;59.14
54503;BME280;40411;50.090;21.954;2022-07-04T07:16:09;157286.94;;;32.72;55.36
54503;BME280;40411;50.090;21.954;2022-07-04T07:18:35;157398.47;;;33.16;57.00
54503;BME280;40411;50.090;21.954;2022-07-04T07:21:02;157572.22;;;33.85;50.94
54503;BME280;40411;50.090;21.954;2022-07-04T07:23:28;157436.03;;;33.31;54.52
54503;BME280;40411;50.090;21.954;2022-07-04T07:25:54;157577.41;;;33.87;51.46
54503;BME280;40411;50.090;21.954;2022-07-04T07:28:20;157437.34;;;33.31;53.50
54503;BME280;40411;50.090;21.954;2022-07-04T07:30:46;157564.44;;;33.81;50.58
54503;BME280;40411;50.090;21.954;2022-07-04T07:33:12;157554.09;;;33.77;51.22
54503;BME280;40411;50.090;21.954;2022-07-04T07:35:38;157705.84;;;34.37;47.53
54503;BME280;40411;50.090;21.954;2022-07-04T07:38:04;157580.00;;;33.88;47.68
54503;BME280;40411;50.090;21.954;2022-07-04T07:40:31;157631.94;;;34.08;47.79
54503;BME280;40411;50.090;21.954;2022-07-04T07:42:57;157726.59;;;34.45;47.50
54503;BME280;40411;50.090;21.954;2022-07-04T07:45:23;157530.72;;;33.68;48.50
54503;BME280;40411;50.090;21.954;2022-07-04T07:47:49;157546.31;;;33.74;47.45
54503;BME280;40411;50.090;21.954;2022-07-04T07:50:15;157759.09;;;34.58;46.13
54503;BME280;40411;50.090;21.954;2022-07-04T07:52:41;157810.97;;;34.79;45.35
54503;BME280;40411;50.090;21.954;2022-07-04T07:55:07;158044.59;;;35.71;43.22
54503;BME280;40411;50.090;21.954;2022-07-04T07:57:33;157851.19;;;34.95;44.51
54503;BME280;40411;50.090;21.954;2022-07-04T07:59:59;158073.16;;;35.82;42.79
54503;BME280;40411;50.090;21.954;2022-07-04T08:02:25;157844.72;;;34.92;44.00
54503;BME280;40411;50.090;21.954;2022-07-04T08:05:11;157823.94;;;34.84;42.77
54503;BME280;40411;50.090;21.954;2022-07-04T08:07:37;158055.00;;;35.75;42.50
54503;BME280;40411;50.090;21.954;2022-07-04T08:10:04;158186.13;;;36.27;39.56
54503;BME280;40411;50.090;21.954;2022-07-04T08:12:31;158047.22;;;35.72;38.74
54503;BME280;40411;50.090;21.954;2022-07-04T08:14:58;158003.03;;;35.54;37.61
54503;BME280;40411;50.090;21.954;2022-07-04T08:17:23;158122.47;;;36.01;38.28
54503;BME280;40411;50.090;21.954;2022-07-04T08:19:50;158122.47;;;36.01;37.30
54503;BME280;40411;50.090;21.954;2022-07-04T08:22:16;158241.94;;;36.49;36.69
54503;BME280;40411;50.090;21.954;2022-07-04T08:24:43;158327.66;;;36.82;35.66
54503;BME280;40411;50.090;21.954;2022-07-04T08:27:10;158341.94;;;36.88;36.56
54503;BME280;40411;50.090;21.954;2022-07-04T08:29:36;158434.19;;;37.24;35.04
54503;BME280;40411;50.090;21.954;2022-07-04T08:32:02;158418.59;;;37.18;36.82
54503;BME280;40411;50.090;21.954;2022-07-04T08:34:29;158523.84;;;37.60;32.96
54503;BME280;40411;50.090;21.954;2022-07-04T08:36:55;158560.19;;;37.74;30.74
54503;BME280;40411;50.090;21.954;2022-07-04T08:39:20;158384.84;;;37.05;31.84
54503;BME280;40411;50.090;21.954;2022-07-04T08:41:51;158448.47;;;37.30;32.72
54503;BME280;40411;50.090;21.954;2022-07-04T08:44:19;158130.25;;;36.05;35.56
54503;BME280;40411;50.090;21.954;2022-07-04T08:46:47;158257.56;;;36.55;33.31
54503;BME280;40411;50.090;21.954;2022-07-04T08:49:20;158416.03;;;37.17;33.65
54503;BME280;40411;50.090;21.954;2022-07-04T08:51:52;158245.84;;;36.50;34.05
54503;BME280;40411;50.090;21.954;2022-07-04T08:54:25;158387.47;;;37.06;31.75
54503;BME280;40411;50.090;21.954;2022-07-04T08:57:10;158484.81;;;37.44;32.32
54503;BME280;40411;50.090;21.954;2022-07-04T08:59:57;158471.88;;;37.39;32.81
54503;BME280;40411;50.090;21.954;2022-07-04T09:02:28;158447.19;;;37.29;31.87
54503;BME280;40411;50.090;21.954;2022-07-04T09:04:54;158519.94;;;37.58;31.75
54503;BME280;40411;50.090;21.954;2022-07-04T09:07:20;158449.75;;;37.30;31.96
54503;BME280;40411;50.090;21.954;2022-07-04T09:09:46;158499.16;;;37.50;32.11
54503;BME280;40411;50.090;21.954;2022-07-04T09:12:12;158416.03;;;37.17;33.83
54503;BME280;40411;50.090;21.954;2022-07-04T09:14:39;158564.13;;;37.75;31.62
54503;BME280;40411;50.090;21.954;2022-07-04T09:17:05;158733.03;;;38.42;31.36
54503;BME280;40411;50.090;21.954;2022-07-04T09:19:32;158568.00;;;37.77;31.41
54503;BME280;40411;50.090;21.954;2022-07-04T09:22:03;158792.81;;;38.65;30.62
54503;BME280;40411;50.090;21.954;2022-07-04T09:24:52;158649.91;;;38.09;32.78
54503;BME280;40411;50.090;21.954;2022-07-04T09:27:36;158808.41;;;38.72;30.44
54503;BME280;40411;50.090;21.954;2022-07-04T09:30:04;158887.72;;;39.03;29.83
54503;BME280;40411;50.090;21.954;2022-07-04T09:32:41;158575.78;;;37.80;31.66
54503;BME280;40411;50.090;21.954;2022-07-04T09:37:55;158438.09;;;37.26;34.78
54503;BME280;40411;50.090;21.954;2022-07-04T09:40:31;158603.06;;;37.91;30.84
54503;BME280;40411;50.090;21.954;2022-07-04T09:43:00;158274.47;;;36.61;32.57
54503;BME280;40411;50.090;21.954;2022-07-04T09:45:27;158383.56;;;37.04;33.40
54503;BME280;40411;50.090;21.954;2022-07-04T09:47:55;158555.00;;;37.72;31.93
54503;BME280;40411;50.090;21.954;2022-07-04T09:50:23;158571.91;;;37.78;32.10
54503;BME280;40411;50.090;21.954;2022-07-04T09:53:01;158613.53;;;37.95;30.44
54503;BME280;40411;50.090;21.954;2022-07-04T09:55:34;158653.75;;;38.11;32.35
54503;BME280;40411;50.090;21.954;2022-07-04T09:58:03;158282.25;;;36.64;35.21
54503;BME280;40411;50.090;21.954;2022-07-04T10:00:30;157735.66;;;34.49;37.29
54503;BME280;40411;50.090;21.954;2022-07-04T10:02:57;157401.03;;;33.17;40.00
54503;BME280;40411;50.090;21.954;2022-07-04T10:05:40;157800.63;;;34.75;36.15
54503;BME280;40411;50.090;21.954;2022-07-04T10:08:06;157644.91;;;34.13;39.58
54503;BME280;40411;50.090;21.954;2022-07-04T10:10:34;157705.84;;;34.37;37.67
54503;BME280;40411;50.090;21.954;2022-07-04T10:13:04;157577.41;;;33.87;39.55
54503;BME280;40411;50.090;21.954;2022-07-04T10:15:32;157534.63;;;33.70;37.73
54503;BME280;40411;50.090;21.954;2022-07-04T10:17:58;157323.22;;;32.86;39.56
54503;BME280;40411;50.090;21.954;2022-07-04T10:20:25;157885.00;;;35.08;38.23
54503;BME280;40411;50.090;21.954;2022-07-04T10:22:51;157831.72;;;34.87;36.57
54503;BME280;40411;50.090;21.954;2022-07-04T10:25:17;157774.66;;;34.64;39.68
54503;BME280;40411;50.090;21.954;2022-07-04T10:27:44;158279.63;;;36.63;34.12
54503;BME280;40411;50.090;21.954;2022-07-04T10:30:32;158044.59;;;35.71;33.23
54503;BME280;40411;50.090;21.954;2022-07-04T10:33:02;158221.16;;;36.40;33.62
54503;BME280;40411;50.090;21.954;2022-07-04T10:36:00;158070.56;;;35.81;33.18
54503;BME280;40411;50.090;21.954;2022-07-04T10:38:34;158019.97;;;35.61;34.88
54503;BME280;40411;50.090;21.954;2022-07-04T10:41:11;157733.09;;;34.48;34.85
54503;BME280;40411;50.090;21.954;2022-07-04T10:43:50;157862.84;;;34.99;36.24
54503;BME280;40411;50.090;21.954;2022-07-04T10:48:49;158004.31;;;35.55;35.38
54503;BME280;40411;50.090;21.954;2022-07-04T10:51:15;158312.09;;;36.76;33.12
54503;BME280;40411;50.090;21.954;2022-07-04T10:53:59;158178.34;;;36.23;32.40
54503;BME280;40411;50.090;21.954;2022-07-04T10:58:51;157980.97;;;35.46;34.09
54503;BME280;40411;50.090;21.954;2022-07-04T11:01:17;158012.19;;;35.58;32.22
54503;BME280;40411;50.090;21.954;2022-07-04T11:03:50;158047.22;;;35.72;33.21
54503;BME280;40411;50.090;21.954;2022-07-04T11:09:22;157909.63;;;35.18;34.16
54503;BME280;40411;50.090;21.954;2022-07-04T11:11:51;157917.41;;;35.21;33.28
54503;BME280;40411;50.090;21.954;2022-07-04T11:14:40;158112.09;;;35.97;31.96
54503;BME280;40411;50.090;21.954;2022-07-04T11:17:28;158140.72;;;36.09;34.15
54503;BME280;40411;50.090;21.954;2022-07-04T11:20:03;158267.97;;;36.59;33.57
54503;BME280;40411;50.090;21.954;2022-07-04T11:22:30;158106.91;;;35.95;32.94
54503;BME280;40411;50.090;21.954;2022-07-04T11:24:56;158280.97;;;36.64;32.99
54503;BME280;40411;50.090;21.954;2022-07-04T11:27:22;158236.72;;;36.46;31.78
54503;BME280;40411;50.090;21.954;2022-07-04T11:29:50;158335.44;;;36.85;30.82
54503;BME280;40411;50.090;21.954;2022-07-04T11:32:16;158212.09;;;36.37;30.85
54503;BME280;40411;50.090;21.954;2022-07-04T11:34:42;158254.97;;;36.54;32.18
54503;BME280;40411;50.090;21.954;2022-07-04T11:37:08;158045.91;;;35.71;31.36
54503;BME280;40411;50.090;21.954;2022-07-04T11:39:34;157881.06;;;35.06;30.90
54503;BME280;40411;50.090;21.954;2022-07-04T11:42:00;158031.63;;;35.66;31.59
54503;BME280;40411;50.090;21.954;2022-07-04T11:44:59;158135.50;;;36.07;32.02
54503;BME280;40411;50.090;21.954;2022-07-04T11:47:43;158312.09;;;36.76;30.36
54503;BME280;40411;50.090;21.954;2022-07-04T11:50:11;158217.31;;;36.39;29.56
54503;BME280;40411;50.090;21.954;2022-07-04T11:55:07;158292.59;;;36.68;31.97
54503;BME280;40411;50.090;21.954;2022-07-04T11:57:34;158067.94;;;35.80;31.39
54503;BME280;40411;50.090;21.954;2022-07-04T12:00:05;158195.19;;;36.30;32.58
54503;BME280;40411;50.090;21.954;2022-07-04T12:02:33;158007.00;;;35.56;32.04
54503;BME280;40411;50.090;21.954;2022-07-04T12:05:00;157813.53;;;34.80;32.36
54503;BME280;40411;50.090;21.954;2022-07-04T12:07:27;157766.88;;;34.61;33.76
54503;BME280;40411;50.090;21.954;2022-07-04T12:09:54;157738.28;;;34.50;33.12
54503;BME280;40411;50.090;21.954;2022-07-04T12:12:21;157835.63;;;34.88;34.48
54503;BME280;40411;50.090;21.954;2022-07-04T12:15:02;158158.84;;;36.16;33.03
54503;BME280;40411;50.090;21.954;2022-07-04T12:17:31;157818.75;;;34.82;33.10
54503;BME280;40411;50.090;21.954;2022-07-04T12:20:17;157891.47;;;35.10;32.90
54503;BME280;40411;50.090;21.954;2022-07-04T12:22:53;157709.75;;;34.39;33.47
54503;BME280;40411;50.090;21.954;2022-07-04T12:25:25;157639.72;;;34.11;34.43
54503;BME280;40411;50.090;21.954;2022-07-04T12:27:53;157427.00;;;33.27;35.13
54503;BME280;40411;50.090;21.954;2022-07-04T12:30:18;157603.38;;;33.97;36.10
54503;BME280;40411;50.090;21.954;2022-07-04T12:32:52;157722.75;;;34.44;34.43
54503;BME280;40411;50.090;21.954;2022-07-04T12:38:03;157502.19;;;33.57;34.78
54503;BME280;40411;50.090;21.954;2022-07-04T12:40:30;157517.81;;;33.63;35.90
54503;BME280;40411;50.090;21.954;2022-07-04T12:42:56;157341.41;;;32.93;34.94
54503;BME280;40411;50.090;21.954;2022-07-04T12:45:22;157544.97;;;33.74;37.03
54503;BME280;40411;50.090;21.954;2022-07-04T12:47:49;157507.41;;;33.59;35.22
54503;BME280;40411;50.090;21.954;2022-07-04T12:50:15;157659.19;;;34.19;33.70
54503;BME280;40411;50.090;21.954;2022-07-04T12:52:41;157878.44;;;35.05;33.93
54503;BME280;40411;50.090;21.954;2022-07-04T12:55:08;157955.06;;;35.35;32.37